createdAt,value
2023-02-22T00:01:21.896Z,98443.75
2023-02-22T00:04:24.749Z,98448.97
2023-02-22T00:07:26.423Z,98448.13
2023-02-22T00:10:29.425Z,98448.97
2023-02-22T00:13:31.290Z,98438.38
2023-02-22T00:16:32.873Z,98431.28
2023-02-22T00:19:35.714Z,98437.41
2023-02-22T00:22:37.772Z,98429.56
2023-02-22T00:25:39.410Z,98426.09
2023-02-22T00:28:42.478Z,98433.13
2023-02-22T00:31:44.225Z,98429.66
2023-02-22T00:34:51.278Z,98424.25
2023-02-22T00:37:53.948Z,98424.19
2023-02-22T00:40:55.714Z,98418.00
2023-02-22T00:43:59.023Z,98416.22
2023-02-22T00:47:00.638Z,98411.75
2023-02-22T00:50:04.128Z,98414.63
2023-02-22T00:53:05.778Z,98407.69
2023-02-22T00:56:07.376Z,98407.69
2023-02-22T00:59:08.930Z,98410.34
2023-02-22T01:02:10.647Z,98403.25
2023-02-22T01:05:14.103Z,98406.91
2023-02-22T01:08:16.987Z,98413.19
2023-02-22T01:11:19.001Z,98406.22
2023-02-22T01:14:21.175Z,98400.75
2023-02-22T01:17:23.066Z,98407.78
2023-02-22T01:20:26.889Z,98406.97
2023-02-22T01:23:28.885Z,98399.94
2023-02-22T01:26:32.555Z,98392.91
2023-02-22T01:29:34.348Z,98392.84
2023-02-22T01:32:36.315Z,98383.09
2023-02-22T01:35:40.853Z,98383.91
2023-02-22T01:38:42.967Z,98387.47
2023-02-22T01:41:44.781Z,98379.53
2023-02-22T01:44:46.278Z,98382.34
2023-02-22T01:47:47.865Z,98384.16
2023-02-22T01:50:56.099Z,98379.75
2023-02-22T01:53:59.550Z,98373.59
2023-02-22T01:57:06.058Z,98367.44
2023-02-22T02:00:10.224Z,98371.00
2023-02-22T02:03:17.935Z,98365.69
2023-02-22T02:06:21.139Z,98367.44
2023-02-22T02:09:30.160Z,98351.59
2023-02-22T02:12:34.350Z,98360.41
2023-02-22T02:15:36.264Z,98353.38
2023-02-22T02:18:37.977Z,98346.41
2023-02-22T02:21:57.264Z,98351.84
2023-02-22T02:25:18.269Z,98343.00
2023-02-22T02:28:47.742Z,98344.88
2023-02-22T02:32:06.293Z,98343.88
2023-02-22T02:35:11.401Z,98339.50
2023-02-22T02:38:17.093Z,98330.75
2023-02-22T02:41:21.862Z,98329.88
2023-02-22T02:44:26.686Z,98315.69
2023-02-22T02:47:30.989Z,98312.19
2023-02-22T02:50:36.672Z,98313.06
2023-02-22T02:53:40.525Z,98308.69
2023-02-22T02:56:42.880Z,98305.94
2023-02-22T02:59:44.575Z,98305.03
2023-02-22T03:02:53.906Z,98298.69
2023-02-22T03:06:05.490Z,98293.38
2023-02-22T03:09:15.568Z,98296.84
2023-02-22T03:12:22.359Z,98293.25
2023-02-22T03:15:29.917Z,98298.56
2023-02-22T03:18:38.337Z,98283.50
2023-02-22T03:21:44.348Z,98281.78
2023-02-22T03:24:53.144Z,98285.22
2023-02-22T03:28:02.396Z,98284.34
2023-02-22T03:31:05.966Z,98280.84
2023-02-22T03:34:11.867Z,98277.25
2023-02-22T03:37:16.169Z,98272.75
2023-02-22T03:40:26.529Z,98277.06
2023-02-22T03:43:34.595Z,98269.00
2023-02-22T03:46:39.677Z,98276.03
2023-02-22T03:49:47.841Z,98282.22
2023-02-22T03:52:49.538Z,98281.34
2023-02-22T03:55:59.352Z,98286.59
2023-02-22T03:59:01.181Z,98284.81
2023-02-22T04:02:02.965Z,98271.38
2023-02-22T04:05:06.305Z,98277.53
2023-02-22T04:08:08.070Z,98275.69
2023-02-22T04:11:09.924Z,98276.56
2023-02-22T04:14:12.021Z,98265.91
2023-02-22T04:17:13.654Z,98269.44
2023-02-22T04:20:19.944Z,98275.53
2023-02-22T04:23:34.701Z,98267.56
2023-02-22T04:26:37.065Z,98268.38
2023-02-22T04:29:40.506Z,98266.59
2023-02-22T04:32:42.334Z,98263.88
2023-02-22T04:35:46.908Z,98267.50
2023-02-22T04:38:49.186Z,98260.41
2023-02-22T04:41:50.844Z,98258.69
2023-02-22T04:44:52.719Z,98256.03
2023-02-22T04:47:54.752Z,98268.31
2023-02-22T04:50:58.150Z,98253.19
2023-02-22T04:54:00.477Z,98265.59
2023-02-22T04:57:02.393Z,98270.84
2023-02-22T05:00:05.303Z,98261.16
2023-02-22T05:03:07.796Z,98261.16
2023-02-22T05:06:12.441Z,98255.78
2023-02-22T05:09:14.209Z,98250.44
2023-02-22T05:12:16.031Z,98254.06
2023-02-22T05:15:18.892Z,98246.97
2023-02-22T05:18:20.962Z,98245.25
2023-02-22T05:21:24.057Z,98243.50
2023-02-22T05:32:02.837Z,98232.97
2023-02-22T05:35:06.170Z,98233.88
2023-02-22T05:38:10.971Z,98232.97
2023-02-22T05:41:12.889Z,98236.47
2023-02-22T05:44:14.889Z,98227.66
2023-02-22T05:47:16.724Z,98224.06
2023-02-22T05:50:19.808Z,98223.16
2023-02-22T05:53:23.941Z,98226.72
2023-02-22T05:56:27.592Z,98226.72
2023-02-22T05:59:30.337Z,98225.00
2023-02-22T06:02:32.187Z,98221.69
2023-02-22T06:05:34.064Z,98224.28
2023-02-22T06:08:37.824Z,98225.94
2023-02-22T06:11:39.371Z,98229.38
2023-02-22T06:14:45.849Z,98232.03
2023-02-22T06:17:47.818Z,98229.44
2023-02-22T06:20:49.627Z,98228.44
2023-02-22T06:23:52.485Z,98225.75
2023-02-22T06:26:55.000Z,98224.06
2023-02-22T06:29:56.634Z,98218.78
2023-02-22T06:32:58.405Z,98226.78
2023-02-22T06:36:00.236Z,98217.97
2023-02-22T06:39:03.873Z,98222.41
2023-02-22T06:42:06.069Z,98223.28
2023-02-22T06:45:08.466Z,98225.00
2023-02-22T06:48:09.940Z,98228.53
2023-02-22T06:51:11.617Z,98230.19
2023-02-22T06:54:14.750Z,98231.03
2023-02-22T06:57:16.452Z,98233.66
2023-02-22T07:00:19.173Z,98228.41
2023-02-22T07:03:21.001Z,98229.25
2023-02-22T07:06:22.886Z,98233.53
2023-02-22T07:09:25.750Z,98227.25
2023-02-22T07:12:27.240Z,98229.81
2023-02-22T07:15:30.235Z,98238.66
2023-02-22T07:18:31.827Z,98233.28
2023-02-22T07:21:33.286Z,98235.78
2023-02-22T07:24:36.201Z,98240.22
2023-02-22T07:27:38.434Z,98243.66
2023-02-22T07:30:39.986Z,98235.78
2023-02-22T07:33:41.799Z,98236.69
2023-02-22T07:36:43.676Z,98236.63
2023-02-22T07:39:46.516Z,98241.81
2023-02-22T07:42:52.242Z,98240.94
2023-02-22T07:45:54.925Z,98237.16
2023-02-22T07:48:56.923Z,98240.59
2023-02-22T07:51:58.685Z,98238.81
2023-02-22T07:55:01.584Z,98239.53
2023-02-22T07:58:04.715Z,98232.34
2023-02-22T08:01:06.427Z,98232.28
2023-02-22T08:04:08.559Z,98226.91
2023-02-22T08:07:10.112Z,98225.03
2023-02-22T08:10:14.570Z,98224.91
2023-02-22T08:13:17.018Z,98230.16
2023-02-22T08:16:22.192Z,98230.16
2023-02-22T08:19:23.957Z,98226.53
2023-02-22T08:22:27.518Z,98226.16
2023-02-22T08:25:30.822Z,98228.75
2023-02-22T08:28:34.778Z,98225.66
2023-02-22T08:31:36.610Z,98219.34
2023-02-22T08:34:38.387Z,98227.16
2023-02-22T08:37:41.955Z,98221.69
2023-02-22T08:40:44.984Z,98212.44
2023-02-22T08:43:46.954Z,98212.41
2023-02-22T08:46:48.623Z,98218.50
2023-02-22T08:49:50.475Z,98213.84
2023-02-22T08:52:52.700Z,98212.81
2023-02-22T08:55:56.224Z,98203.63
2023-02-22T08:58:57.848Z,98199.84
2023-02-22T09:01:59.583Z,98205.88
2023-02-22T09:05:01.179Z,98208.94
2023-02-22T09:08:02.854Z,98203.59
2023-02-22T09:11:09.006Z,98203.44
2023-02-22T09:14:10.734Z,98200.94
2023-02-22T09:17:12.302Z,98198.91
2023-02-22T09:20:14.663Z,98191.78
2023-02-22T09:23:16.162Z,98198.41
2023-02-22T09:26:19.229Z,98200.50
2023-02-22T09:29:22.708Z,98182.66
2023-02-22T09:32:24.854Z,98197.09
2023-02-22T09:35:27.659Z,98189.88
2023-02-22T09:38:30.292Z,98182.66
2023-02-22T09:41:36.461Z,98184.31
2023-02-22T09:44:42.909Z,98179.22
2023-02-22T09:47:47.228Z,98178.63
2023-02-22T09:50:51.072Z,98180.66
2023-02-22T09:53:56.253Z,98177.19
2023-02-22T09:57:00.601Z,98172.75
2023-02-22T10:00:15.245Z,98168.94
2023-02-22T10:03:21.576Z,98179.91
2023-02-22T10:06:24.271Z,98169.25
2023-02-22T10:09:27.309Z,98167.53
2023-02-22T10:12:35.775Z,98161.75
2023-02-22T10:15:42.706Z,98164.09
2023-02-22T10:19:00.192Z,98155.69
2023-02-22T10:22:13.216Z,98150.28
2023-02-22T10:25:18.112Z,98149.41
2023-02-22T10:28:24.293Z,98145.16
2023-02-22T10:31:28.469Z,98147.63
2023-02-22T10:34:33.550Z,98154.91
2023-02-22T10:37:35.540Z,98149.97
2023-02-22T10:40:39.295Z,98146.66
2023-02-22T10:43:43.017Z,98140.06
2023-02-22T10:46:45.430Z,98142.91
2023-02-22T10:49:49.052Z,98135.34
2023-02-22T10:52:50.675Z,98137.06
2023-02-22T10:56:06.123Z,98133.59
2023-02-22T10:59:09.285Z,98130.31
2023-02-22T11:02:18.616Z,98132.38
2023-02-22T11:05:31.188Z,98133.31
2023-02-22T11:08:33.321Z,98132.88
2023-02-22T11:11:34.913Z,98122.91
2023-02-22T11:14:41.228Z,98123.50
2023-02-22T11:17:44.046Z,98124.09
2023-02-22T11:20:45.799Z,98119.97
2023-02-22T11:23:47.495Z,98113.03
2023-02-22T11:26:51.062Z,98113.34
2023-02-22T11:29:56.845Z,98113.53
2023-02-22T11:33:00.424Z,98111.22
2023-02-22T11:36:09.404Z,98104.16
2023-02-22T11:39:21.569Z,98092.00
2023-02-22T11:42:24.493Z,98089.88
2023-02-22T11:45:27.794Z,98093.97
2023-02-22T11:48:31.035Z,98088.41
2023-02-22T11:51:40.201Z,98082.28
2023-02-22T11:54:49.088Z,98083.41
2023-02-22T11:57:56.064Z,98068.06
2023-02-22T12:01:07.066Z,98075.91
2023-02-22T12:04:30.150Z,98068.00
2023-02-22T12:07:42.256Z,98078.78
2023-02-22T12:10:51.103Z,98065.72
2023-02-22T12:14:02.117Z,98062.97
2023-02-22T12:17:13.988Z,98058.97
2023-02-22T12:20:25.130Z,98062.44
2023-02-22T12:23:32.042Z,98060.91
2023-02-22T12:26:36.469Z,98057.88
2023-02-22T12:29:41.976Z,98057.88
2023-02-22T12:32:47.609Z,98051.97
2023-02-22T12:35:51.765Z,98056.09
2023-02-22T12:38:57.507Z,98039.72
2023-02-22T12:42:01.757Z,98049.69
2023-02-22T12:45:08.320Z,98041.34
2023-02-22T12:48:22.206Z,98048.72
2023-02-22T12:51:30.008Z,98042.97
2023-02-22T12:54:37.774Z,98035.44
2023-02-22T12:57:45.331Z,98040.50
2023-02-22T13:00:51.013Z,98029.00
2023-02-22T13:03:56.640Z,98035.91
2023-02-22T13:07:10.712Z,98031.50
2023-02-22T13:10:23.693Z,98025.34
2023-02-22T13:13:32.528Z,98027.81
2023-02-22T13:16:40.887Z,98019.06
2023-02-22T13:19:48.243Z,98014.16
2023-02-22T13:22:51.661Z,98012.38
2023-02-22T13:25:58.096Z,98018.59
2023-02-22T13:29:02.536Z,97999.34
2023-02-22T13:32:22.535Z,97998.50
2023-02-22T13:35:35.520Z,97998.69
2023-02-22T13:39:04.676Z,97995.28
2023-02-22T13:42:20.234Z,97994.09
2023-02-22T13:45:39.957Z,97991.97
2023-02-22T13:48:49.329Z,97988.38
2023-02-22T13:51:53.505Z,97988.91
2023-02-22T13:54:57.350Z,97985.66
2023-02-22T13:58:01.726Z,97981.47
2023-02-22T14:01:03.474Z,97987.03
2023-02-22T14:04:34.024Z,97982.94
2023-02-22T14:07:56.391Z,97974.75
2023-02-22T14:11:00.852Z,97976.97
2023-02-22T14:14:14.643Z,97974.16
2023-02-22T14:17:25.242Z,97977.06
2023-02-22T14:20:31.137Z,97976.97
2023-02-22T14:23:35.335Z,97980.41
2023-02-22T14:26:39.381Z,97966.53
2023-02-22T14:29:49.398Z,97978.22
2023-02-22T14:32:52.309Z,97976.50
2023-02-22T14:35:54.078Z,97974.00
2023-02-22T14:38:58.309Z,97978.13
2023-02-22T14:42:04.392Z,97980.63
2023-02-22T14:45:17.214Z,97976.47
2023-02-22T14:48:25.108Z,97978.16
2023-02-22T14:51:29.289Z,97964.97
2023-02-22T14:54:36.955Z,97969.56
2023-02-22T14:57:55.032Z,97969.13
2023-02-22T15:00:59.789Z,97971.88
2023-02-22T15:04:19.008Z,97963.28
2023-02-22T15:07:22.100Z,97964.47
2023-02-22T15:10:26.072Z,97962.38
2023-02-22T15:13:33.134Z,97966.78
2023-02-22T15:16:35.199Z,97960.06
2023-02-22T15:19:39.031Z,97959.41
2023-02-22T15:22:40.811Z,97958.91
2023-02-22T15:25:48.221Z,97960.34
2023-02-22T15:28:54.687Z,97959.78
2023-02-22T15:31:56.804Z,97948.50
2023-02-22T15:35:11.994Z,97953.19
2023-02-22T15:38:20.572Z,97953.53
2023-02-22T15:41:27.960Z,97940.47
2023-02-22T15:44:34.360Z,97954.50
2023-02-22T15:47:36.892Z,97945.72
2023-02-22T15:50:39.140Z,97949.25
2023-02-22T15:53:42.835Z,97952.00
2023-02-22T15:56:48.727Z,97950.47
2023-02-22T15:59:53.588Z,97944.53
2023-02-22T16:02:57.554Z,97948.34
2023-02-22T16:05:59.387Z,97945.94
2023-02-22T16:09:02.528Z,97949.69
2023-02-22T16:12:09.540Z,97942.78
2023-02-22T16:15:18.722Z,97941.34
2023-02-22T16:18:25.099Z,97942.47
2023-02-22T16:21:27.182Z,97948.09
2023-02-22T16:24:30.109Z,97941.31
2023-02-22T16:27:47.363Z,97951.56
2023-02-22T16:30:56.373Z,97942.47
2023-02-22T16:33:58.339Z,97952.53
2023-02-22T16:37:01.407Z,97953.31
2023-02-22T16:40:04.221Z,97958.75
2023-02-22T16:43:07.896Z,97955.31
2023-02-22T16:46:10.930Z,97955.59
2023-02-22T16:49:13.369Z,97959.19
2023-02-22T16:52:15.357Z,97959.88
2023-02-22T16:55:18.832Z,97954.91
2023-02-22T16:58:20.682Z,97955.38
2023-02-22T17:01:23.912Z,97960.28
2023-02-22T17:04:26.379Z,97965.88
2023-02-22T17:07:30.836Z,97959.69
2023-02-22T17:10:33.056Z,97969.75
2023-02-22T17:13:35.634Z,97955.56
2023-02-22T17:16:38.490Z,97966.41
2023-02-22T17:19:40.172Z,97966.22
2023-02-22T17:22:43.096Z,97958.81
2023-02-22T17:25:46.070Z,97965.09
2023-02-22T17:28:47.872Z,97966.91
2023-02-22T17:31:52.303Z,97968.63
2023-02-22T17:34:54.039Z,97966.81
2023-02-22T17:37:55.714Z,97974.13
2023-02-22T17:40:58.749Z,97980.50
2023-02-22T17:44:00.357Z,97969.19
2023-02-22T17:47:03.409Z,97977.19
2023-02-22T17:50:05.497Z,97980.72
2023-02-22T17:53:07.455Z,97986.16
2023-02-22T17:56:10.534Z,97990.69
2023-02-22T17:59:12.304Z,97995.44
2023-02-22T18:02:15.221Z,97991.97
2023-02-22T18:05:17.994Z,97990.09
2023-02-22T18:08:20.189Z,97989.94
2023-02-22T18:11:26.192Z,97993.69
2023-02-22T18:14:27.835Z,97989.66
2023-02-22T18:17:30.893Z,97991.44
2023-02-22T18:20:38.260Z,97993.34
2023-02-22T18:23:40.046Z,97993.56
2023-02-22T18:26:41.813Z,97982.44
2023-02-22T18:29:43.756Z,97990.88
2023-02-22T18:32:46.734Z,97991.88
2023-02-22T18:35:52.392Z,97985.69
2023-02-22T18:38:54.933Z,97992.91
2023-02-22T18:41:59.806Z,97990.47
2023-02-22T18:45:04.479Z,97987.19
2023-02-22T18:48:08.571Z,97981.84
2023-02-22T18:51:11.472Z,97981.16
2023-02-22T18:54:13.246Z,97977.72
2023-02-22T18:57:16.999Z,97979.75
2023-02-22T19:00:19.730Z,97983.34
2023-02-22T19:03:22.750Z,97988.78
2023-02-22T19:06:24.423Z,97987.06
2023-02-22T19:09:26.083Z,97984.56
2023-02-22T19:12:27.877Z,97991.81
2023-02-22T19:15:29.584Z,97990.34
2023-02-22T19:18:32.746Z,97994.97
2023-02-22T19:21:34.768Z,97996.13
2023-02-22T19:24:36.567Z,97989.34
2023-02-22T19:27:38.126Z,97991.19
2023-02-22T19:30:42.473Z,97989.53
2023-02-22T19:33:46.397Z,97984.31
2023-02-22T19:36:48.462Z,97985.31
2023-02-22T19:39:50.485Z,97980.88
2023-02-22T19:42:53.123Z,97980.94
2023-02-22T19:45:54.815Z,97978.41
2023-02-22T19:48:57.892Z,97974.03
2023-02-22T19:51:59.461Z,97974.28
2023-02-22T19:55:01.475Z,97977.78
2023-02-22T19:58:03.716Z,97980.53
2023-02-22T20:01:11.686Z,97971.69
2023-02-22T20:04:21.609Z,97979.59
2023-02-22T20:07:23.462Z,97978.91
2023-02-22T20:10:25.214Z,97983.41
2023-02-22T20:13:26.751Z,97980.06
2023-02-22T20:16:28.723Z,97978.56
2023-02-22T20:19:31.964Z,97980.41
2023-02-22T20:22:33.584Z,97987.63
2023-02-22T20:25:35.575Z,97979.88
2023-02-22T20:28:37.125Z,97980.88
2023-02-22T20:31:39.585Z,97981.84
2023-02-22T20:34:46.549Z,97985.38
2023-02-22T20:37:48.129Z,97988.34
2023-02-22T20:40:49.875Z,97983.16
2023-02-22T20:43:51.902Z,97989.56
2023-02-22T20:46:53.503Z,97990.66
2023-02-22T20:49:56.340Z,97990.31
2023-02-22T20:52:58.863Z,97990.50
2023-02-22T20:56:00.352Z,97995.03
2023-02-22T20:59:02.560Z,97990.66
2023-02-22T21:02:04.518Z,97983.91
2023-02-22T21:05:07.537Z,97985.06
2023-02-22T21:08:09.097Z,97984.47
2023-02-22T21:11:11.787Z,97984.69
2023-02-22T21:14:18.289Z,97980.31
2023-02-22T21:17:28.681Z,97986.75
2023-02-22T21:20:31.666Z,97996.81
2023-02-22T21:23:33.275Z,97991.63
2023-02-22T21:26:34.961Z,97994.09
2023-02-22T21:29:37.420Z,97993.88
2023-02-22T21:32:39.352Z,97991.22
2023-02-22T21:35:47.246Z,97995.97
2023-02-22T21:38:53.487Z,97992.09
2023-02-22T21:42:00.277Z,97996.03
2023-02-22T21:45:02.021Z,97992.94
2023-02-22T21:48:04.090Z,97995.03
2023-02-22T21:51:13.924Z,97997.72
2023-02-22T21:54:16.816Z,97994.50
2023-02-22T21:57:18.832Z,97995.38
2023-02-22T22:00:29.111Z,97987.47
2023-02-22T22:03:30.824Z,97995.50
2023-02-22T22:06:34.711Z,97985.81
2023-02-22T22:09:37.762Z,97997.50
2023-02-22T22:12:59.034Z,97990.13
2023-02-22T22:16:02.802Z,97985.59
2023-02-22T22:19:04.807Z,97992.84
2023-02-22T22:22:07.951Z,97987.59
2023-02-22T22:25:13.444Z,97989.34
2023-02-22T22:28:15.104Z,97981.56
2023-02-22T22:31:17.864Z,97988.59
2023-02-22T22:34:19.744Z,97995.50
2023-02-22T22:37:22.834Z,97991.94
2023-02-22T22:40:24.826Z,97999.09
2023-02-22T22:43:27.290Z,97998.22
2023-02-22T22:46:28.856Z,97991.13
2023-02-22T22:49:33.014Z,97999.97
2023-02-22T22:52:38.040Z,98012.25
2023-02-22T22:55:40.864Z,98002.63
2023-02-22T22:58:43.957Z,98006.13
2023-02-22T23:01:45.668Z,98002.53
2023-02-22T23:04:49.819Z,98002.97
2023-02-22T23:07:53.807Z,98008.13
2023-02-22T23:10:55.876Z,98008.03
2023-02-22T23:13:57.482Z,98015.09
2023-02-22T23:17:03.604Z,98007.13
2023-02-22T23:20:11.201Z,98007.72
2023-02-22T23:23:14.792Z,98012.88
2023-02-22T23:26:18.279Z,98013.56
2023-02-22T23:29:23.041Z,98014.03
2023-02-22T23:32:26.819Z,98015.56
2023-02-22T23:35:28.614Z,98014.56
2023-02-22T23:38:37.336Z,98016.00
2023-02-22T23:41:38.891Z,98007.69
2023-02-22T23:44:40.526Z,98015.50
2023-02-22T23:47:43.879Z,98021.84
2023-02-22T23:50:46.517Z,98016.66
2023-02-22T23:53:49.640Z,98018.53
2023-02-22T23:56:56.990Z,98017.59
